Time;durP1;ratioP1;P1;durP2;ratioP2;P2;SDS_P1;SDS_P2;PMS_P1;PMS_P2;Temp;Humidity;BMP_temperature;BMP_pressure;BME280_temperature;BME280_humidity;BME280_pressure;Samples;Min_cycle;Max_cycle;Signal;HPM_P1;HPM_P2
2023/05/08 00:00:56;;;;;;;10.20;7.88;;;;;;;16.55;80.39;100918.09;4163872;28;20052;-59
2023/05/08 00:02:59;;;;;;;10.88;8.38;;;;;;;16.61;79.84;100917.22;4163805;28;20376;-60
2023/05/08 00:05:02;;;;;;;12.07;8.57;;;;;;;16.55;79.80;100920.72;4164080;28;20065;-60
2023/05/08 00:07:05;;;;;;;8.40;7.15;;;;;;;16.48;79.89;100919.00;4163882;28;20490;-60
2023/05/08 00:09:11;;;;;;;8.55;6.32;;;;;;;16.47;79.89;100918.13;4164320;28;20104;-60
2023/05/08 00:11:14;;;;;;;10.23;6.78;;;;;;;16.47;79.57;100917.25;4167274;28;20518;-60
2023/05/08 00:13:17;;;;;;;8.90;7.05;;;;;;;16.46;79.84;100919.00;4165856;28;20072;-60
2023/05/08 00:15:20;;;;;;;9.50;6.95;;;;;;;16.45;79.98;100917.25;4166054;28;20457;-60
2023/05/08 00:17:23;;;;;;;10.20;7.28;;;;;;;16.46;80.15;100918.16;4166026;28;20038;-60
2023/05/08 00:19:26;;;;;;;8.32;6.93;;;;;;;16.46;80.49;100915.53;4167163;28;20069;-59
2023/05/08 00:21:28;;;;;;;13.43;7.93;;;;;;;16.48;80.47;100917.25;4166948;28;20042;-59
2023/05/08 00:23:31;;;;;;;10.80;7.85;;;;;;;16.47;80.60;100912.00;4166760;28;20057;-59
2023/05/08 00:25:36;;;;;;;9.50;8.05;;;;;;;16.50;80.70;100915.50;4167309;28;20043;-60
2023/05/08 00:27:38;;;;;;;9.75;8.43;;;;;;;16.49;80.48;100915.50;4182389;28;20043;-59
2023/05/08 00:29:41;;;;;;;9.60;7.95;;;;;;;16.47;80.29;100909.38;4165747;28;20057;-59
2023/05/08 00:31:44;;;;;;;14.77;9.07;;;;;;;16.46;80.15;100913.75;4165755;28;20068;-59
2023/05/08 00:33:48;;;;;;;9.25;7.90;;;;;;;16.46;80.24;100912.91;4166826;28;20041;-59
2023/05/08 00:35:51;;;;;;;9.77;7.57;;;;;;;16.47;80.34;100914.63;4182337;28;20076;-59
2023/05/08 00:37:54;;;;;;;9.52;7.68;;;;;;;16.49;79.90;100907.63;4165666;28;20042;-60
2023/05/08 00:39:57;;;;;;;9.50;6.82;;;;;;;16.47;79.91;100909.38;4165683;28;20068;-59
2023/05/08 00:42:01;;;;;;;8.68;6.45;;;;;;;16.45;80.23;100906.75;4181980;28;20041;-60
2023/05/08 00:44:04;;;;;;;8.68;7.15;;;;;;;16.43;80.72;100913.78;4181847;28;20036;-60
2023/05/08 00:46:08;;;;;;;7.97;6.07;;;;;;;16.43;80.82;100910.25;4182044;28;20136;-60
2023/05/08 00:48:11;;;;;;;14.32;7.10;;;;;;;16.44;80.71;100917.25;4165534;28;20049;-59
2023/05/08 00:50:15;;;;;;;10.48;7.90;;;;;;;16.46;80.36;100918.16;4165453;28;20100;-60
2023/05/08 00:52:19;;;;;;;10.52;6.95;;;;;;;16.46;80.28;100916.38;4165236;28;20087;-60
2023/05/08 00:54:22;;;;;;;9.23;7.43;;;;;;;16.44;80.54;100912.00;4165469;28;20565;-60
2023/05/08 00:56:27;;;;;;;8.75;7.15;;;;;;;16.45;80.61;100911.16;4166642;28;20053;-60
2023/05/08 00:58:34;;;;;;;;;;;;;;;16.48;80.04;100921.63;4182311;28;20317;-60
2023/05/08 01:00:39;;;;;;;8.57;5.72;;;;;;;16.45;79.86;100916.38;4165395;28;20325;-59
2023/05/08 01:02:41;;;;;;;8.93;6.15;;;;;;;16.48;79.76;100917.25;4181547;28;20174;-58
2023/05/08 01:04:46;;;;;;;9.63;6.32;;;;;;;16.48;79.15;100916.38;4165354;28;20481;-59
2023/05/08 01:06:49;;;;;;;;;;;;;;;16.28;79.93;100922.56;4167008;28;20045;-60
2023/05/08 01:08:52;;;;;;;7.53;4.97;;;;;;;16.23;80.34;100927.78;4166476;28;19931;-60
2023/05/08 01:11:01;;;;;;;8.05;5.40;;;;;;;16.24;80.46;100933.94;4166427;28;20402;-60
2023/05/08 01:13:11;;;;;;;7.90;4.00;;;;;;;16.21;80.28;100933.94;4181676;28;20526;-59
2023/05/08 01:15:21;;;;;;;6.65;4.63;;;;;;;16.22;80.55;100933.94;4181926;28;20043;-59
2023/05/08 01:17:32;;;;;;;9.02;4.13;;;;;;;16.24;80.80;100928.69;4148643;28;20042;-60
2023/05/08 01:19:52;;;;;;;6.50;4.43;;;;;;;16.25;80.68;100932.16;4166564;28;20132;-60
2023/05/08 01:22:04;;;;;;;6.20;4.38;;;;;;;16.26;80.86;100937.41;4164840;28;20063;-59
2023/05/08 01:24:33;;;;;;;8.90;4.65;;;;;;;16.25;80.82;100935.66;4166078;28;20045;-59
2023/05/08 01:27:10;;;;;;;6.53;4.30;;;;;;;16.23;81.20;100932.19;4181683;28;20060;-60
2023/05/08 01:29:39;;;;;;;10.60;4.60;;;;;;;16.23;81.12;100933.03;4165029;28;20073;-59
2023/05/08 01:32:00;;;;;;;6.75;4.63;;;;;;;16.25;81.23;100940.91;4164819;28;20136;-59
2023/05/08 01:34:06;;;;;;;6.65;4.32;;;;;;;16.27;81.42;100939.16;4164754;28;20045;-59
2023/05/08 01:36:19;;;;;;;7.63;4.60;;;;;;;16.28;81.11;100930.44;4165153;28;20037;-60
2023/05/08 01:38:30;;;;;;;5.78;4.40;;;;;;;16.29;81.14;100931.28;4166117;28;20060;-60
2023/05/08 01:40:40;;;;;;;8.00;4.10;;;;;;;16.29;81.51;100934.78;4181537;28;20045;-60
2023/05/08 01:42:50;;;;;;;7.93;4.07;;;;;;;16.31;81.04;100934.78;4181167;28;20049;-60
2023/05/08 01:44:59;;;;;;;6.00;4.22;;;;;;;16.29;80.95;100940.03;4164719;28;20033;-60
2023/05/08 01:47:07;;;;;;;5.15;3.80;;;;;;;16.30;80.92;100938.31;4181205;28;20053;-59
2023/05/08 01:49:17;;;;;;;6.20;3.90;;;;;;;16.28;81.20;100940.94;4181220;28;20462;-59
2023/05/08 01:51:23;;;;;;;5.93;4.20;;;;;;;16.29;81.13;100942.66;4181003;28;20052;-59
2023/05/08 01:53:30;;;;;;;5.78;4.22;;;;;;;16.30;81.48;100944.41;4165573;28;20040;-60
2023/05/08 01:55:36;;;;;;;7.75;4.35;;;;;;;16.29;81.50;100937.41;4181091;28;20549;-60
2023/05/08 01:57:46;;;;;;;7.70;4.28;;;;;;;16.30;81.49;100939.16;4181094;28;20120;-60
2023/05/08 01:59:51;;;;;;;8.07;3.80;;;;;;;16.31;81.60;100942.66;4180913;28;20037;-60
2023/05/08 02:01:57;;;;;;;6.30;3.72;;;;;;;16.30;81.49;100943.53;4164403;28;20041;-60
2023/05/08 02:04:03;;;;;;;4.05;3.25;;;;;;;16.30;81.34;100943.53;4180677;28;20094;-60
2023/05/08 02:06:08;;;;;;;4.50;3.50;;;;;;;16.27;81.52;100946.19;4164361;28;20033;-60
2023/05/08 02:08:12;;;;;;;4.82;3.97;;;;;;;16.27;81.25;100943.56;4180793;28;20041;-60
2023/05/08 02:10:17;;;;;;;4.93;4.35;;;;;;;16.27;80.97;100954.91;4180855;28;20466;-60
2023/05/08 02:12:22;;;;;;;7.20;4.15;;;;;;;16.26;81.20;100947.03;4163978;28;20068;-60
2023/05/08 02:14:26;;;;;;;6.03;3.53;;;;;;;16.26;81.16;100947.91;4164282;28;20560;-60
2023/05/08 02:16:30;;;;;;;6.55;4.43;;;;;;;16.24;81.25;100952.28;4165329;28;20140;-60
2023/05/08 02:18:35;;;;;;;7.22;4.38;;;;;;;16.24;81.01;100947.03;4180674;28;20406;-60
2023/05/08 02:20:41;;;;;;;5.35;3.88;;;;;;;16.25;80.95;100946.16;4180569;28;20037;-60
2023/05/08 02:22:48;;;;;;;4.93;3.88;;;;;;;16.25;80.94;100948.78;4180225;28;20045;-60
2023/05/08 02:24:54;;;;;;;5.05;3.90;;;;;;;16.26;80.87;100941.81;4180424;28;20428;-60
2023/05/08 02:26:58;;;;;;;6.82;3.90;;;;;;;16.22;80.73;100933.03;4165407;28;20056;-60
2023/05/08 02:29:02;;;;;;;4.85;3.45;;;;;;;16.21;80.68;100944.44;4165298;28;20037;-60
2023/05/08 02:31:06;;;;;;;5.70;3.80;;;;;;;16.19;80.71;100946.16;4165091;28;20105;-60
2023/05/08 02:33:11;;;;;;;4.55;3.83;;;;;;;16.19;80.48;100940.91;4179572;28;20384;-60
2023/05/08 02:35:16;;;;;;;7.35;3.97;;;;;;;16.19;80.63;100943.53;4180453;28;20036;-60
2023/05/08 02:37:22;;;;;;;8.48;4.00;;;;;;;16.20;80.69;100948.78;4180690;28;20041;-59
2023/05/08 02:39:30;;;;;;;4.43;3.40;;;;;;;16.20;80.65;100955.78;4180426;28;20037;-59
2023/05/08 02:41:34;;;;;;;5.78;4.32;;;;;;;16.20;80.70;100958.41;4164975;28;20087;-60
2023/05/08 02:43:37;;;;;;;;;;;;;;;16.11;81.42;100958.44;4163958;28;20037;-60
2023/05/08 02:45:47;;;;;;;4.50;3.50;;;;;;;16.15;80.91;100960.16;4163733;28;19928;-60
2023/05/08 02:47:59;;;;;;;6.65;4.55;;;;;;;16.16;81.05;100954.03;4163903;28;20068;-60
2023/05/08 02:50:09;;;;;;;5.38;4.07;;;;;;;16.16;80.94;100960.16;4163808;28;20057;-60
2023/05/08 02:52:17;;;;;;;7.78;4.85;;;;;;;16.17;81.32;100958.41;4163377;28;20132;-61
2023/05/08 02:54:29;;;;;;;7.68;4.07;;;;;;;16.19;80.86;100964.53;4163723;28;20132;-61
2023/05/08 02:56:38;;;;;;;6.20;4.65;;;;;;;16.17;81.46;100967.16;4180104;28;20447;-60
2023/05/08 02:58:45;;;;;;;7.20;4.30;;;;;;;16.16;81.06;100965.41;4180081;28;20048;-59
2023/05/08 03:01:08;;;;;;;6.03;4.53;;;;;;;16.15;81.27;100961.06;4180156;28;20179;-60
2023/05/08 03:03:17;;;;;;;7.40;4.65;;;;;;;16.15;81.48;100966.28;4179772;28;20399;-60
2023/05/08 03:05:29;;;;;;;7.18;4.93;;;;;;;16.16;81.35;100968.03;4179861;28;20048;-60
2023/05/08 03:07:38;;;;;;;4.80;4.30;;;;;;;16.16;81.11;100959.28;4179910;28;20047;-60
2023/05/08 03:09:45;;;;;;;4.70;3.65;;;;;;;16.15;81.02;100962.78;4163508;28;20049;-60
2023/05/08 03:11:50;;;;;;;6.38;4.28;;;;;;;16.15;81.61;100960.16;4163338;28;20037;-59
2023/05/08 03:13:58;;;;;;;6.35;4.32;;;;;;;16.16;81.46;100957.53;4179537;28;20049;-60
2023/05/08 03:16:05;;;;;;;8.02;4.70;;;;;;;16.18;81.26;100962.81;4163270;28;20527;-60
2023/05/08 03:18:11;;;;;;;6.18;4.40;;;;;;;16.18;81.20;100960.19;4163215;28;20045;-60
2023/05/08 03:20:17;;;;;;;4.88;4.18;;;;;;;16.19;81.33;100961.91;4164514;28;20041;-60
2023/05/08 03:22:21;;;;;;;3.63;3.22;;;;;;;16.15;81.56;100949.66;4179340;28;20498;-60
2023/05/08 03:24:27;;;;;;;5.80;4.80;;;;;;;16.12;81.78;100961.06;4179639;28;20065;-60
2023/05/08 03:26:33;;;;;;;9.07;4.60;;;;;;;16.12;81.40;100963.69;4179628;28;20061;-60
2023/05/08 03:28:37;;;;;;;7.95;5.00;;;;;;;16.14;81.74;100961.06;4179649;28;20045;-60
2023/05/08 03:30:40;;;;;;;;;;;;;;;16.01;82.13;100966.28;4164794;28;20045;-60
2023/05/08 03:32:47;;;;;;;7.43;5.18;;;;;;;16.05;81.78;100969.78;4162761;28;19925;-60
2023/05/08 03:34:51;;;;;;;4.95;3.78;;;;;;;16.08;81.32;100963.66;4162977;28;20042;-60
2023/05/08 03:36:55;;;;;;;8.50;5.43;;;;;;;16.10;81.66;100962.78;4162943;28;20048;-60
2023/05/08 03:38:59;;;;;;;7.43;5.10;;;;;;;16.12;81.38;100960.16;4162945;28;20041;-60
2023/05/08 03:41:03;;;;;;;9.10;4.60;;;;;;;16.10;81.87;100956.69;4164132;28;20529;-60
2023/05/08 03:43:09;;;;;;;5.93;4.18;;;;;;;16.11;81.38;100959.28;4162585;28;20049;-60
2023/05/08 03:45:14;;;;;;;5.63;4.03;;;;;;;16.11;81.64;100959.28;4178637;28;20116;-60
2023/05/08 03:47:17;;;;;;;;;;;;;;;16.01;81.91;100958.41;4179784;28;20029;-60
2023/05/08 03:49:22;;;;;;;6.15;4.88;;;;;;;16.03;81.84;100956.69;4162851;28;20016;-60
2023/05/08 03:51:25;;;;;;;6.78;4.80;;;;;;;16.08;82.06;100956.69;4162781;28;20473;-60
2023/05/08 03:53:29;;;;;;;5.30;4.63;;;;;;;16.12;82.09;100966.31;4162591;28;20124;-60
2023/05/08 03:55:32;;;;;;;7.90;5.05;;;;;;;16.13;82.05;100961.91;4162799;28;20131;-60
2023/05/08 03:57:48;;;;;;;5.68;4.57;;;;;;;16.15;82.08;100963.66;4179189;28;20131;-60
2023/05/08 04:00:03;;;;;;;5.80;4.68;;;;;;;16.18;81.78;100960.19;4163038;28;20491;-60
2023/05/08 04:02:25;;;;;;;6.05;4.57;;;;;;;16.15;81.87;100966.28;4163635;28;20045;-60
2023/05/08 04:04:38;;;;;;;6.60;4.72;;;;;;;16.18;82.14;100970.66;4179194;28;20095;-60
2023/05/08 04:06:46;;;;;;;10.67;4.90;;;;;;;16.17;81.95;100966.28;4179117;28;20037;-60
2023/05/08 04:09:05;;;;;;;5.82;5.05;;;;;;;16.16;81.88;100961.91;4179168;28;20115;-60
2023/05/08 04:11:16;;;;;;;6.43;5.13;;;;;;;16.16;81.97;100967.16;4179060;28;20044;-60
2023/05/08 04:13:25;;;;;;;7.25;5.82;;;;;;;16.16;81.94;100967.16;4162282;28;20045;-60
2023/05/08 04:15:34;;;;;;;6.70;5.90;;;;;;;16.16;81.83;100968.03;4146281;28;20500;-60
2023/05/08 04:17:42;;;;;;;5.95;4.90;;;;;;;16.16;81.87;100972.41;4146232;28;20038;-60
2023/05/08 04:19:51;;;;;;;8.48;5.65;;;;;;;16.18;82.16;100970.66;4179110;28;20047;-60
2023/05/08 04:21:59;;;;;;;7.32;5.30;;;;;;;16.16;81.65;100967.16;4178941;28;20143;-60
2023/05/08 04:24:04;;;;;;;8.18;5.63;;;;;;;16.18;81.88;100973.28;4162317;28;20053;-60
2023/05/08 04:26:08;;;;;;;8.00;4.82;;;;;;;16.18;81.52;100971.53;4178899;28;20072;-60
2023/05/08 04:28:11;;;;;;;7.10;5.82;;;;;;;16.18;81.99;100978.53;4179021;28;20041;-60
2023/05/08 04:30:15;;;;;;;6.90;5.88;;;;;;;16.18;81.65;100975.91;4162646;28;20578;-60
2023/05/08 04:32:21;;;;;;;8.27;5.78;;;;;;;16.16;81.81;100988.13;4162109;28;20050;-60
2023/05/08 04:34:24;;;;;;;7.97;4.82;;;;;;;16.16;81.78;100982.91;4162555;28;20053;-60
2023/05/08 04:36:32;;;;;;;8.13;4.90;;;;;;;16.20;81.58;100984.66;4178786;28;20041;-60
2023/05/08 04:38:37;;;;;;;10.68;6.20;;;;;;;16.18;81.98;100981.16;4162396;28;20757;-60
2023/05/08 04:40:41;;;;;;;6.68;4.72;;;;;;;16.19;82.14;100982.88;4162449;28;20041;-60
2023/05/08 04:42:46;;;;;;;;;;;;;;;16.08;82.25;100980.28;4162435;28;20053;-60
2023/05/08 04:44:51;;;;;;;7.90;5.82;;;;;;;16.10;82.26;100985.53;4162374;28;20003;-60
2023/05/08 04:46:55;;;;;;;8.63;5.65;;;;;;;16.14;82.23;100984.66;4178766;28;20052;-60
2023/05/08 04:48:59;;;;;;;9.25;6.07;;;;;;;16.16;82.18;100985.53;4178774;28;20391;-60
2023/05/08 04:51:04;;;;;;;7.10;5.65;;;;;;;16.19;82.31;100989.03;4162308;28;20575;-59
2023/05/08 04:53:08;;;;;;;7.25;6.13;;;;;;;16.20;82.18;100995.16;4178601;28;20041;-60
2023/05/08 04:55:11;;;;;;;7.45;5.70;;;;;;;16.22;82.33;100998.63;4162719;28;20045;-60
2023/05/08 04:57:14;;;;;;;7.82;6.05;;;;;;;16.23;82.45;100989.88;4165244;28;20590;-60
2023/05/08 04:59:17;;;;;;;7.57;5.90;;;;;;;16.25;82.35;100996.00;4166655;28;20044;-60
2023/05/08 05:01:21;;;;;;;7.47;6.13;;;;;;;16.27;81.88;100996.88;4166409;28;20375;-60
2023/05/08 05:03:23;;;;;;;10.48;5.97;;;;;;;16.25;81.89;100996.00;4181702;28;20122;-60
2023/05/08 05:05:29;;;;;;;7.32;6.07;;;;;;;16.29;82.25;101000.38;4165426;28;20056;-60
2023/05/08 05:07:33;;;;;;;6.88;6.15;;;;;;;16.29;82.07;101003.00;4165249;28;20065;-60
2023/05/08 05:09:37;;;;;;;8.38;6.22;;;;;;;16.30;81.96;100998.66;4181668;28;20083;-60
2023/05/08 05:11:40;;;;;;;9.65;7.22;;;;;;;16.28;82.05;101006.53;4165165;28;20041;-60
2023/05/08 05:13:43;;;;;;;10.98;6.70;;;;;;;16.27;82.06;101007.38;4164975;28;20041;-60
2023/05/08 05:15:46;;;;;;;8.63;6.18;;;;;;;16.27;81.82;101014.38;4165271;28;20043;-60
2023/05/08 05:17:50;;;;;;;10.77;6.90;;;;;;;16.26;81.97;101010.88;4181576;28;20041;-60
2023/05/08 05:19:53;;;;;;;11.38;6.97;;;;;;;16.26;82.34;101016.13;4165021;28;20724;-60
2023/05/08 05:21:58;;;;;;;11.70;6.85;;;;;;;16.27;82.33;101012.63;4172750;22;20046;-66
2023/05/08 05:24:01;;;;;;;12.30;6.72;;;;;;;16.28;82.33;101014.38;4165529;28;20049;-66
2023/05/08 05:26:06;;;;;;;6.97;6.03;;;;;;;16.29;82.33;101013.50;4166137;28;20049;-67
2023/05/08 05:28:09;;;;;;;8.68;6.95;;;;;;;16.33;82.03;101020.50;4148358;28;20506;-67
2023/05/08 05:30:12;;;;;;;8.40;6.43;;;;;;;16.34;82.39;101019.63;4148267;28;20054;-67
2023/05/08 05:32:16;;;;;;;6.77;5.43;;;;;;;16.34;82.37;101019.63;4148183;28;20423;-67
2023/05/08 05:34:19;;;;;;;8.20;7.03;;;;;;;16.34;82.44;101019.63;4148501;28;20148;-67
2023/05/08 05:36:22;;;;;;;7.45;6.65;;;;;;;16.38;82.27;101020.47;4148533;28;20045;-67
2023/05/08 05:38:26;;;;;;;8.57;7.32;;;;;;;16.39;82.54;101028.34;4148462;28;20038;-67
2023/05/08 05:40:30;;;;;;;8.45;7.03;;;;;;;16.40;82.27;101026.63;4148363;28;20042;-67
2023/05/08 05:42:33;;;;;;;8.77;6.88;;;;;;;16.42;82.15;101026.63;4148042;28;20046;-67
2023/05/08 05:44:36;;;;;;;10.18;7.68;;;;;;;16.44;82.28;101037.97;4148146;28;20045;-67
2023/05/08 05:46:39;;;;;;;9.02;7.78;;;;;;;16.44;82.47;101035.34;4148326;28;20050;-67
2023/05/08 05:48:46;;;;;;;12.35;8.73;;;;;;;16.46;82.51;101036.25;4148234;28;20042;-67
2023/05/08 05:50:48;;;;;;;12.35;9.10;;;;;;;16.47;82.40;101033.63;4148189;28;20042;-67
2023/05/08 05:52:52;;;;;;;9.30;7.97;;;;;;;16.47;82.59;101033.63;4147696;28;20064;-67
2023/05/08 05:54:56;;;;;;;13.52;10.82;;;;;;;16.48;82.57;101042.34;4147932;28;20042;-67
2023/05/08 05:56:59;;;;;;;15.18;11.23;;;;;;;16.43;82.55;101038.84;4147959;28;20044;-67
2023/05/08 05:59:03;;;;;;;14.23;12.60;;;;;;;16.45;82.71;101037.13;4164323;28;20073;-67
2023/05/08 06:01:05;;;;;;;20.83;16.48;;;;;;;16.47;82.56;101035.34;4147635;28;20069;-67
2023/05/08 06:03:09;;;;;;;17.33;15.52;;;;;;;16.46;82.52;101041.50;4147593;28;20484;-67
2023/05/08 06:05:12;;;;;;;15.53;13.10;;;;;;;16.46;82.55;101034.47;4148145;28;20608;-67
2023/05/08 06:07:15;;;;;;;18.27;14.30;;;;;;;16.50;82.46;101040.59;4164178;28;20297;-67
2023/05/08 06:09:19;;;;;;;16.73;14.30;;;;;;;16.51;82.68;101035.34;4147712;28;20140;-67
2023/05/08 06:11:23;;;;;;;15.98;14.13;;;;;;;16.54;82.65;101042.34;4165185;28;20037;-67
2023/05/08 06:13:26;;;;;;;15.70;14.10;;;;;;;16.55;82.51;101044.97;4147414;28;20044;-67
2023/05/08 06:15:29;;;;;;;18.45;15.40;;;;;;;16.56;82.45;101040.59;4165228;28;20089;-67
2023/05/08 06:17:32;;;;;;;18.30;13.23;;;;;;;16.57;82.39;101044.97;4147584;28;20124;-67
2023/05/08 06:19:35;;;;;;;17.60;14.85;;;;;;;16.57;82.64;101052.84;4147840;28;20042;-67
2023/05/08 06:21:38;;;;;;;16.33;14.52;;;;;;;16.58;82.46;101047.59;4164884;28;20099;-67
2023/05/08 06:23:41;;;;;;;13.82;12.27;;;;;;;16.58;82.35;101050.22;4147282;28;20057;-67
2023/05/08 06:25:44;;;;;;;16.98;14.90;;;;;;;16.56;82.47;101049.34;4147418;28;20053;-67
2023/05/08 06:27:48;;;;;;;16.95;15.10;;;;;;;16.58;82.51;101044.09;4164926;28;20042;-67
2023/05/08 06:29:51;;;;;;;16.58;14.77;;;;;;;16.57;82.72;101048.47;4164926;28;20513;-67
2023/05/08 06:31:55;;;;;;;14.63;12.15;;;;;;;16.57;82.81;101044.97;4164862;28;20389;-67
2023/05/08 06:33:58;;;;;;;15.07;12.73;;;;;;;16.57;82.67;101048.47;4164759;28;20045;-67
2023/05/08 06:36:01;;;;;;;15.73;13.75;;;;;;;16.56;82.66;101051.09;4164880;28;20499;-67
2023/05/08 06:38:04;;;;;;;15.77;11.88;;;;;;;16.58;82.51;101044.97;4164924;28;20045;-67
2023/05/08 06:40:08;;;;;;;10.15;9.05;;;;;;;16.63;81.51;101044.97;4147130;28;20499;-67
2023/05/08 06:42:14;;;;;;;13.60;9.07;;;;;;;16.60;80.98;101044.94;4147003;28;20120;-67
2023/05/08 06:44:22;;;;;;;11.10;8.73;;;;;;;16.61;80.49;101046.72;4131177;28;20554;-66
2023/05/08 06:46:24;;;;;;;15.18;10.90;;;;;;;16.61;79.76;101053.72;4147359;28;20053;-67
2023/05/08 06:48:27;;;;;;;8.82;7.70;;;;;;;16.58;80.36;101059.84;4164829;28;20041;-68
2023/05/08 06:50:31;;;;;;;11.13;9.32;;;;;;;16.55;80.66;101055.47;4164755;28;20091;-67
2023/05/08 06:52:34;;;;;;;13.32;8.82;;;;;;;16.56;80.46;101056.34;4146993;28;20100;-67
2023/05/08 06:54:37;;;;;;;14.48;9.13;;;;;;;16.61;79.74;101056.34;4164692;28;20096;-67
2023/05/08 06:56:39;;;;;;;12.13;8.38;;;;;;;16.55;79.71;101049.34;4164686;28;20482;-67
2023/05/08 06:58:42;;;;;;;122.22;99.57;;;;;;;16.58;79.94;101051.97;4164705;28;20041;-67
2023/05/08 07:01:00;;;;;;;145.23;129.07;;;;;;;16.58;80.09;101054.59;4164557;28;20054;-66
2023/05/08 07:03:03;;;;;;;33.78;29.85;;;;;;;16.60;80.14;101059.84;4146786;28;20104;-68
2023/05/08 07:05:07;;;;;;;207.40;33.05;;;;;;;16.59;80.56;101058.97;4164575;28;20049;-68
2023/05/08 07:07:11;;;;;;;1999.90;410.65;;;;;;;16.60;80.61;101057.22;4164506;28;20046;-68
2023/05/08 07:09:15;;;;;;;1999.90;877.65;;;;;;;16.62;80.62;101066.84;4164435;28;20109;-68
2023/05/08 07:11:20;;;;;;;1999.90;799.33;;;;;;;16.70;79.75;101059.81;4164422;28;20041;-68
2023/05/08 07:13:23;;;;;;;751.65;131.90;;;;;;;16.68;78.88;101063.34;4164142;28;20503;-68
2023/05/08 07:15:26;;;;;;;551.55;75.07;;;;;;;16.62;78.51;101066.84;4164326;28;20045;-68
2023/05/08 07:17:31;;;;;;;357.90;45.63;;;;;;;16.57;78.54;101060.72;4164277;28;20041;-68
2023/05/08 07:19:35;;;;;;;;;;;;;;;16.50;78.78;101074.72;4147109;28;20076;-68
2023/05/08 07:21:38;;;;;;;84.35;18.08;;;;;;;16.53;78.41;101066.88;4164154;28;19921;-68
2023/05/08 07:23:41;;;;;;;112.60;30.45;;;;;;;16.52;78.30;101073.84;4146456;28;20050;-69
2023/05/08 07:25:44;;;;;;;59.58;46.28;;;;;;;16.53;78.68;101069.50;4164248;28;20073;-67
2023/05/08 07:27:47;;;;;;;202.43;116.10;;;;;;;16.65;78.24;101066.84;4164248;28;20037;-67
2023/05/08 07:29:50;;;;;;;61.50;42.90;;;;;;;16.60;78.46;101063.31;4164146;28;20502;-67
2023/05/08 07:31:53;;;;;;;22.88;17.00;;;;;;;16.55;79.00;101070.34;4146583;28;20088;-66
2023/05/08 07:34:24;;;;;;;15.80;11.25;;;;;;;16.54;79.06;101064.22;4162776;28;20080;-67
2023/05/08 07:36:51;;;;;;;758.70;118.82;;;;;;;16.63;79.09;101067.72;4158688;28;20503;-68
2023/05/08 07:38:54;;;;;;;1411.43;249.40;;;;;;;16.70;78.82;101065.06;4164086;28;20041;-67
2023/05/08 07:40:58;;;;;;;78.70;24.50;;;;;;;16.71;78.38;101071.22;4164156;28;20064;-66
2023/05/08 07:43:01;;;;;;;33.17;12.73;;;;;;;16.68;78.12;101077.34;4163733;28;20041;-66
2023/05/08 07:45:04;;;;;;;605.67;103.50;;;;;;;16.64;78.06;101072.97;4163976;28;20042;-67
2023/05/08 07:47:07;;;;;;;1999.90;302.10;;;;;;;16.66;77.78;101081.72;4163945;28;20045;-67
2023/05/08 07:49:10;;;;;;;190.18;36.17;;;;;;;16.73;77.29;101075.59;4163676;28;20041;-66
2023/05/08 07:51:14;;;;;;;407.48;51.92;;;;;;;16.71;76.88;101077.31;4146494;28;20463;-67
2023/05/08 07:53:17;;;;;;;1638.35;220.15;;;;;;;16.72;76.89;101078.22;4163834;28;20053;-68
2023/05/08 07:55:21;;;;;;;1125.93;147.80;;;;;;;16.71;76.21;101077.31;4164072;28;20462;-68
2023/05/08 07:57:24;;;;;;;374.60;51.17;;;;;;;16.70;76.40;101085.19;4163983;28;20096;-67
2023/05/08 07:59:27;;;;;;;286.33;40.72;;;;;;;16.57;76.91;101090.47;4163972;28;20041;-68
2023/05/08 08:01:30;;;;;;;65.53;16.63;;;;;;;16.56;77.15;101085.22;4163920;28;20491;-67
2023/05/08 08:03:37;;;;;;;131.93;21.48;;;;;;;16.56;77.40;101093.09;4163800;28;20080;-68
2023/05/08 08:05:40;;;;;;;157.95;24.52;;;;;;;16.63;76.64;101088.72;4163961;28;20050;-67
2023/05/08 08:07:45;;;;;;;54.53;13.20;;;;;;;16.57;76.66;101084.34;4163953;28;20037;-68
2023/05/08 08:09:47;;;;;;;225.00;28.83;;;;;;;16.57;76.89;101089.59;4163899;28;20044;-67
2023/05/08 08:11:50;;;;;;;60.95;15.30;;;;;;;16.57;76.82;101090.47;4163835;28;20067;-67
2023/05/08 08:13:53;;;;;;;85.72;16.40;;;;;;;16.53;76.71;101093.09;4146238;28;20126;-67
2023/05/08 08:15:56;;;;;;;305.98;35.17;;;;;;;16.59;76.66;101093.09;4146310;28;20042;-67
2023/05/08 08:17:59;;;;;;;138.75;17.92;;;;;;;16.51;76.97;101094.84;4146172;28;20054;-67
2023/05/08 08:20:01;;;;;;;143.95;22.33;;;;;;;16.50;76.78;101093.09;4164015;28;20466;-67
2023/05/08 08:22:06;;;;;;;41.15;11.38;;;;;;;16.48;76.99;101090.47;4145951;28;20492;-67
2023/05/08 08:24:10;;;;;;;121.35;20.27;;;;;;;16.50;77.15;101093.09;4163886;28;20521;-67
2023/05/08 08:26:13;;;;;;;90.88;19.05;;;;;;;16.48;77.56;101092.22;4163834;28;20048;-67
2023/05/08 08:28:16;;;;;;;84.78;18.55;;;;;;;16.56;77.05;101090.47;4146444;28;20475;-67
2023/05/08 08:30:19;;;;;;;76.47;18.03;;;;;;;16.52;77.56;101092.22;4164278;28;20411;-67
2023/05/08 08:32:22;;;;;;;79.97;17.25;;;;;;;16.52;77.58;101094.84;4166622;28;20784;-68
2023/05/08 08:34:25;;;;;;;39.35;13.48;;;;;;;16.52;77.99;101089.59;4167111;28;20041;-67
2023/05/08 08:36:28;;;;;;;169.90;131.85;;;;;;;16.59;77.31;101098.34;4166913;28;20045;-67
2023/05/08 08:38:31;;;;;;;19.05;15.05;;;;;;;16.63;77.00;101097.47;4166845;28;20040;-67
2023/05/08 08:40:40;;;;;;;40.67;24.52;;;;;;;16.63;77.14;101099.22;4166814;28;20060;-67
2023/05/08 08:42:43;;;;;;;46.05;40.78;;;;;;;16.61;77.27;101099.22;4148851;28;20042;-67
2023/05/08 08:44:46;;;;;;;70.38;35.55;;;;;;;16.59;77.80;101100.97;4166722;28;20033;-67
2023/05/08 08:46:51;;;;;;;44.35;17.23;;;;;;;16.61;77.71;101096.59;4166682;28;20084;-67
2023/05/08 08:48:56;;;;;;;134.25;26.25;;;;;;;16.65;78.00;101097.47;4166692;28;20045;-68
2023/05/08 08:51:06;;;;;;;108.28;24.15;;;;;;;16.73;78.19;101091.34;4166616;28;20049;-67
2023/05/08 08:53:15;;;;;;;37.13;13.00;;;;;;;16.71;77.71;101090.44;4166336;28;20449;-67
2023/05/08 08:55:20;;;;;;;94.95;18.55;;;;;;;16.76;77.84;101095.69;4166602;28;20414;-69
2023/05/08 08:57:27;;;;;;;56.47;16.52;;;;;;;16.75;77.51;101099.22;4166549;28;20535;-68
2023/05/08 08:59:31;;;;;;;259.50;29.67;;;;;;;16.74;77.89;101092.22;4148962;28;20073;-70
2023/05/08 09:01:35;;;;;;;258.85;34.35;;;;;;;16.88;77.44;101100.09;4166360;28;20037;-67
2023/05/08 09:03:38;;;;;;;542.15;63.85;;;;;;;16.89;77.88;101091.34;4166184;28;20088;-68
2023/05/08 09:05:42;;;;;;;390.27;46.72;;;;;;;16.94;77.47;101102.72;4166431;28;20088;-67
2023/05/08 09:07:45;;;;;;;265.40;34.75;;;;;;;16.92;77.79;101100.09;4166445;28;20148;-67
2023/05/08 09:09:49;;;;;;;309.88;39.72;;;;;;;16.97;77.89;101100.09;4166283;28;20042;-67
2023/05/08 09:11:52;;;;;;;244.75;36.60;;;;;;;17.02;77.65;101095.69;4166312;28;20136;-67
2023/05/08 09:13:57;;;;;;;33.00;14.20;;;;;;;16.95;77.74;101107.06;4166049;28;20050;-67
2023/05/08 09:16:02;;;;;;;315.13;42.40;;;;;;;16.96;78.10;101100.09;4148952;28;20052;-68
2023/05/08 09:18:05;;;;;;;406.48;43.22;;;;;;;17.10;77.10;101099.19;4166263;28;20569;-68
2023/05/08 09:20:09;;;;;;;531.88;55.65;;;;;;;17.04;77.29;101104.44;4166149;28;20037;-67
2023/05/08 09:22:13;;;;;;;;;;;;;;;17.02;77.62;101108.81;4166273;28;20053;-67
2023/05/08 09:24:15;;;;;;;843.25;95.60;;;;;;;17.11;78.00;101105.28;4166112;28;19975;-68
2023/05/08 09:26:27;;;;;;;706.55;78.57;;;;;;;17.22;77.28;101106.16;4166133;28;20511;-67
2023/05/08 09:28:30;;;;;;;681.45;74.75;;;;;;;17.21;77.52;101106.16;4166103;28;20038;-68
2023/05/08 09:30:48;;;;;;;305.77;40.63;;;;;;;17.32;77.60;101104.38;4148403;28;20301;-69
2023/05/08 09:33:01;;;;;;;189.52;51.50;;;;;;;17.53;77.09;101102.53;4148127;28;20458;-69
2023/05/08 09:35:05;;;;;;;122.28;25.60;;;;;;;17.61;75.22;101103.41;4165962;28;20041;-69
2023/05/08 09:37:12;;;;;;;90.10;24.85;;;;;;;17.55;75.29;101101.66;4166085;28;20131;-68
2023/05/08 09:39:22;;;;;;;80.53;20.50;;;;;;;17.63;75.54;101110.38;4166373;28;20068;-68